createdAt,value
2022-09-24T00:01:42.878Z,7.70
2022-09-24T00:06:42.790Z,7.13
2022-09-24T00:09:10.612Z,6.78
2022-09-24T00:11:39.114Z,8.00
2022-09-24T00:14:07.381Z,6.55
2022-09-24T00:16:35.015Z,6.00
2022-09-24T00:19:03.308Z,8.48
2022-09-24T00:21:35.355Z,6.65
2022-09-24T00:26:32.421Z,6.97
2022-09-24T00:28:59.966Z,8.77
2022-09-24T00:31:27.580Z,7.38
2022-09-24T00:33:55.224Z,6.93
2022-09-24T00:36:23.044Z,7.80
2022-09-24T00:41:43.103Z,9.45
2022-09-24T00:44:35.015Z,9.70
2022-09-24T00:47:01.990Z,11.18
2022-09-24T00:52:16.868Z,6.70
2022-09-24T00:57:31.933Z,6.10
2022-09-24T01:02:50.630Z,7.43
2022-09-24T01:08:06.126Z,6.50
2022-09-24T01:13:43.926Z,0
2022-09-24T01:13:58.003Z,5.75
2022-09-24T01:16:34.244Z,6.75
2022-09-24T01:19:09.859Z,6.70
2022-09-24T01:21:44.378Z,6.32
2022-09-24T01:24:35.723Z,6.05
2022-09-24T01:27:40.924Z,7.53
2022-09-24T01:30:13.780Z,7.35
2022-09-24T01:32:54.344Z,6.60
2022-09-24T01:35:38.651Z,5.40
2022-09-24T01:38:09.991Z,6.25
2022-09-24T01:40:38.494Z,5.60
2022-09-24T01:43:07.595Z,6.28
2022-09-24T01:45:36.830Z,7.30
2022-09-24T01:48:05.391Z,6.63
2022-09-24T01:50:40.446Z,6.32
2022-09-24T01:56:21.954Z,0
2022-09-24T01:56:59.350Z,5.97
2022-09-24T01:59:30.238Z,5.82
2022-09-24T02:02:09.005Z,5.90
2022-09-24T02:04:42.956Z,14.07
2022-09-24T02:07:38.707Z,6.82
2022-09-24T02:10:12.954Z,8.50
2022-09-24T02:12:41.796Z,5.97
2022-09-24T02:15:32.229Z,7.70
2022-09-24T02:18:06.890Z,7.65
2022-09-24T02:23:26.071Z,5.75
2022-09-24T02:25:59.009Z,10.75
2022-09-24T02:28:26.831Z,9.30
2022-09-24T02:30:59.308Z,6.88
2022-09-24T02:33:27.448Z,6.65
2022-09-24T02:35:54.372Z,6.55
2022-09-24T02:38:21.113Z,8.70
2022-09-24T02:40:48.805Z,7.53
2022-09-24T02:43:15.720Z,9.82
2022-09-24T02:45:42.431Z,6.32
2022-09-24T02:48:09.168Z,6.40
2022-09-24T02:50:35.927Z,6.53
2022-09-24T02:53:02.781Z,7.20
2022-09-24T02:55:29.532Z,8.35
2022-09-24T02:57:56.268Z,9.03
2022-09-24T03:00:23.032Z,8.35
2022-09-24T03:05:36.410Z,8.07
2022-09-24T03:10:50.597Z,8.05
2022-09-24T03:16:06.175Z,6.22
2022-09-24T03:21:21.992Z,8.20
2022-09-24T03:26:36.002Z,8.73
2022-09-24T03:31:49.385Z,5.90
2022-09-24T03:37:02.795Z,7.68
2022-09-24T03:42:16.155Z,7.28
2022-09-24T03:44:42.858Z,7.73
2022-09-24T03:47:09.590Z,7.60
2022-09-24T03:49:36.330Z,7.80
2022-09-24T03:52:03.072Z,7.25
2022-09-24T03:54:29.820Z,8.30
2022-09-24T03:56:56.527Z,5.90
2022-09-24T03:59:23.396Z,11.13
2022-09-24T04:00:42.032Z,0
2022-09-24T04:04:36.899Z,8.50
2022-09-24T04:09:50.900Z,7.05
2022-09-24T04:12:17.648Z,8.50
2022-09-24T04:14:44.380Z,7.18
2022-09-24T04:17:11.123Z,7.73
2022-09-24T04:19:37.881Z,8.75
2022-09-24T04:22:04.617Z,7.35
2022-09-24T04:24:31.321Z,7.68
2022-09-24T04:26:58.074Z,7.47
2022-09-24T04:29:24.778Z,8.85
2022-09-24T04:31:51.574Z,9.53
2022-09-24T04:34:18.328Z,8.15
2022-09-24T04:36:45.047Z,8.30
2022-09-24T04:39:11.831Z,9.60
2022-09-24T04:41:38.811Z,8.77
2022-09-24T04:46:52.349Z,7.25
2022-09-24T04:52:05.777Z,8.55
2022-09-24T04:57:19.255Z,9.57
2022-09-24T05:02:32.741Z,10.50
2022-09-24T05:04:59.619Z,9.30
2022-09-24T05:07:26.365Z,11.27
2022-09-24T05:09:53.113Z,8.38
2022-09-24T05:12:19.865Z,9.98
2022-09-24T05:14:46.648Z,9.27
2022-09-24T05:17:13.361Z,9.35
2022-09-24T05:19:40.109Z,9.13
2022-09-24T05:22:06.873Z,10.23
2022-09-24T05:24:33.593Z,10.65
2022-09-24T05:27:00.319Z,8.70
2022-09-24T05:32:15.696Z,10.33
2022-09-24T05:37:32.963Z,10.10
2022-09-24T05:42:46.331Z,8.88
2022-09-24T05:48:00.178Z,12.77
2022-09-24T05:52:54.385Z,11.05
2022-09-24T05:55:21.127Z,10.35
2022-09-24T06:00:35.325Z,12.60
2022-09-24T06:03:13.829Z,12.32
2022-09-24T06:05:45.147Z,12.25
2022-09-24T06:08:12.240Z,13.65
2022-09-24T06:10:39.124Z,11.23
2022-09-24T06:13:05.837Z,11.95
2022-09-24T06:15:32.559Z,12.05
2022-09-24T06:17:59.284Z,12.17
2022-09-24T06:20:26.035Z,13.70
2022-09-24T06:22:56.114Z,16.40
2022-09-24T06:28:10.087Z,12.10
2022-09-24T06:30:39.073Z,11.35
2022-09-24T06:33:10.779Z,12.57
2022-09-24T06:35:00.459Z,0
2022-09-24T06:35:39.462Z,13.93
2022-09-24T06:38:07.435Z,14.40
2022-09-24T06:40:37.490Z,15.80
2022-09-24T06:43:05.383Z,15.90
2022-09-24T06:45:32.244Z,13.18
2022-09-24T06:48:01.163Z,15.80
2022-09-24T06:50:30.124Z,15.50
2022-09-24T06:55:43.993Z,14.40
2022-09-24T07:01:01.845Z,14.40
2022-09-24T07:06:18.326Z,32.40
2022-09-24T07:11:31.756Z,17.92
2022-09-24T07:16:47.458Z,12.20
2022-09-24T07:19:14.212Z,12.90
2022-09-24T07:21:40.945Z,14.38
2022-09-24T07:24:07.760Z,12.43
2022-09-24T07:26:34.484Z,13.98
2022-09-24T07:29:01.210Z,12.90
2022-09-24T07:31:28.032Z,13.77
2022-09-24T07:33:54.825Z,13.63
2022-09-24T07:36:21.606Z,14.25
2022-09-24T07:38:48.432Z,13.48
2022-09-24T07:41:15.174Z,12.90
2022-09-24T07:43:41.946Z,15.50
2022-09-24T07:46:08.756Z,14.40
2022-09-24T07:48:35.558Z,10.33
2022-09-24T07:51:02.293Z,10.85
2022-09-24T07:53:29.062Z,9.67
2022-09-24T07:55:59.216Z,11.50
2022-09-24T07:58:26.024Z,11.75
2022-09-24T08:00:52.827Z,12.90
2022-09-24T08:03:19.672Z,9.98
2022-09-24T08:05:46.675Z,13.10
2022-09-24T08:08:13.462Z,10.20
2022-09-24T08:10:40.332Z,11.10
2022-09-24T08:13:07.072Z,9.83
2022-09-24T08:15:33.826Z,11.75
2022-09-24T08:18:04.547Z,10.67
2022-09-24T08:23:19.820Z,10.48
2022-09-24T08:28:36.392Z,8.73
2022-09-24T08:33:51.836Z,8.80
2022-09-24T08:39:05.303Z,9.63
2022-09-24T08:42:01.237Z,12.47
2022-09-24T08:44:36.195Z,12.27
2022-09-24T08:47:08.976Z,7.60
2022-09-24T08:49:45.908Z,7.90
2022-09-24T08:52:44.654Z,9.85
2022-09-24T08:55:36.303Z,8.68
2022-09-24T08:58:44.979Z,8.80
2022-09-24T09:01:20.521Z,10.52
2022-09-24T09:03:50.413Z,19.17
2022-09-24T09:06:46.385Z,7.82
2022-09-24T09:09:10.244Z,0
2022-09-24T09:12:10.733Z,8.05
2022-09-24T09:14:42.157Z,8.43
2022-09-24T09:17:19.937Z,7.45
2022-09-24T09:19:54.004Z,9.23
2022-09-24T09:22:24.339Z,7.70
2022-09-24T09:24:53.618Z,9.50
2022-09-24T09:30:16.925Z,9.07
2022-09-24T09:33:10.439Z,10.65
2022-09-24T09:36:05.284Z,6.97
2022-09-24T09:38:42.969Z,7.00
2022-09-24T09:41:42.730Z,6.80
2022-09-24T09:47:35.492Z,7.68
2022-09-24T09:50:10.483Z,8.02
2022-09-24T09:55:27.850Z,8.35
2022-09-24T09:58:10.223Z,8.50
2022-09-24T10:00:37.267Z,7.57
2022-09-24T10:03:04.803Z,8.77
2022-09-24T10:05:29.698Z,0
2022-09-24T10:08:26.032Z,7.15
2022-09-24T10:11:00.402Z,7.68
2022-09-24T10:13:28.051Z,9.18
2022-09-24T10:18:51.071Z,7.25
2022-09-24T10:21:36.143Z,6.20
2022-09-24T10:24:21.301Z,7.40
2022-09-24T10:26:48.945Z,8.45
2022-09-24T10:29:20.752Z,8.93
2022-09-24T10:34:34.267Z,6.70
2022-09-24T10:37:14.209Z,11.63
2022-09-24T10:39:41.079Z,8.23
2022-09-24T10:45:15.823Z,8.85
2022-09-24T10:48:15.226Z,8.35
2022-09-24T10:56:52.224Z,11.25
2022-09-24T10:59:54.040Z,7.50
2022-09-24T11:02:34.026Z,7.80
2022-09-24T11:05:22.576Z,8.02
2022-09-24T11:08:09.938Z,8.13
2022-09-24T11:13:51.617Z,8.20
2022-09-24T11:16:24.409Z,6.68
2022-09-24T11:18:51.214Z,8.60
2022-09-24T11:21:30.670Z,9.30
2022-09-24T11:24:24.360Z,7.15
2022-09-24T11:26:59.692Z,7.60
2022-09-24T11:30:07.434Z,7.87
2022-09-24T11:32:58.834Z,8.02
2022-09-24T11:35:51.637Z,8.10
2022-09-24T11:38:36.844Z,9.43
2022-09-24T11:41:15.380Z,6.90
2022-09-24T11:44:07.066Z,9.63
2022-09-24T11:46:58.999Z,9.00
2022-09-24T11:52:44.179Z,7.07
2022-09-24T11:55:24.720Z,9.32
2022-09-24T11:58:18.319Z,8.38
2022-09-24T12:00:55.205Z,9.20
2022-09-24T12:06:45.232Z,8.02
2022-09-24T12:09:22.717Z,8.90
2022-09-24T12:11:56.139Z,6.80
2022-09-24T12:14:27.047Z,7.47
2022-09-24T12:17:01.178Z,9.95
2022-09-24T12:19:53.818Z,7.75
2022-09-24T12:22:22.258Z,7.83
2022-09-24T12:24:54.834Z,7.30
2022-09-24T12:27:28.484Z,8.00
2022-09-24T12:32:42.809Z,11.57
2022-09-24T12:35:28.269Z,11.70
2022-09-24T12:38:14.864Z,8.32
2022-09-24T12:41:15.287Z,8.47
2022-09-24T12:43:59.103Z,9.05
2022-09-24T12:46:41.561Z,8.90
2022-09-24T12:49:26.524Z,9.43
2022-09-24T12:51:58.397Z,10.25
2022-09-24T12:54:33.032Z,9.60
2022-09-24T12:57:26.012Z,7.35
2022-09-24T12:59:59.111Z,9.00
2022-09-24T13:02:31.171Z,9.97
2022-09-24T13:05:03.804Z,11.45
2022-09-24T13:07:39.629Z,11.50
2022-09-24T13:10:26.793Z,13.18
2022-09-24T13:12:53.789Z,10.73
2022-09-24T13:18:22.423Z,9.40
2022-09-24T13:20:59.866Z,9.68
2022-09-24T13:23:26.562Z,10.52
2022-09-24T13:26:05.395Z,8.70
2022-09-24T13:28:52.837Z,10.52
2022-09-24T13:34:18.856Z,9.88
2022-09-24T13:37:03.087Z,9.40
2022-09-24T13:39:33.803Z,9.70
2022-09-24T13:42:14.628Z,11.50
2022-09-24T13:44:53.763Z,10.83
2022-09-24T13:50:16.191Z,9.40
2022-09-24T13:53:12.002Z,8.15
2022-09-24T13:58:40.267Z,7.30
2022-09-24T14:01:23.031Z,8.37
2022-09-24T14:04:05.954Z,9.93
2022-09-24T14:06:34.593Z,8.38
2022-09-24T14:09:01.572Z,9.90
2022-09-24T14:11:28.660Z,9.90
2022-09-24T14:13:55.644Z,10.10
2022-09-24T14:16:24.507Z,9.00
2022-09-24T14:21:59.084Z,7.60
2022-09-24T14:24:37.210Z,7.30
2022-09-24T14:27:12.126Z,8.00
2022-09-24T14:29:48.330Z,8.40
2022-09-24T14:32:29.327Z,9.02
2022-09-24T14:34:58.952Z,8.63
2022-09-24T14:37:31.934Z,10.80
2022-09-24T14:42:57.583Z,9.15
2022-09-24T14:45:37.924Z,14.45
2022-09-24T14:48:17.184Z,11.30
2022-09-24T14:53:33.504Z,10.30
2022-09-24T14:56:01.170Z,10.65
2022-09-24T14:58:30.614Z,12.20
2022-09-24T15:01:00.693Z,12.95
2022-09-24T15:03:39.014Z,12.30
2022-09-24T15:06:23.296Z,13.80
2022-09-24T15:08:59.052Z,12.23
2022-09-24T15:11:27.591Z,14.25
2022-09-24T15:14:31.366Z,17.10
2022-09-24T15:17:19.550Z,15.80
2022-09-24T15:19:46.256Z,15.27
2022-09-24T15:22:12.986Z,20.10
2022-09-24T15:24:39.978Z,16.33
2022-09-24T15:27:18.714Z,16.27
2022-09-24T15:32:33.568Z,19.17
2022-09-24T15:37:47.577Z,19.10
2022-09-24T15:40:21.090Z,18.63
2022-09-24T15:42:47.929Z,19.58
2022-09-24T15:45:20.465Z,19.33
2022-09-24T15:47:51.228Z,20.55
2022-09-24T15:50:22.645Z,20.42
2022-09-24T15:52:58.345Z,21.83
2022-09-24T15:55:25.143Z,25.85
2022-09-24T15:57:51.870Z,25.03
2022-09-24T16:00:21.814Z,24.92
2022-09-24T16:02:51.508Z,25.80
2022-09-24T16:05:19.532Z,25.30
2022-09-24T16:07:50.021Z,27.50
2022-09-24T16:10:17.390Z,26.60
2022-09-24T16:12:44.236Z,26.73
2022-09-24T16:15:15.869Z,31.30
2022-09-24T16:17:43.548Z,26.20
2022-09-24T16:20:10.553Z,25.90
2022-09-24T16:22:37.360Z,22.67
2022-09-24T16:25:04.482Z,23.17
2022-09-24T16:27:31.240Z,22.88
2022-09-24T16:29:58.025Z,25.85
2022-09-24T16:32:24.858Z,23.73
2022-09-24T16:34:51.551Z,24.63
2022-09-24T16:37:18.353Z,21.90
2022-09-24T16:39:45.081Z,22.57
2022-09-24T16:42:11.861Z,22.15
2022-09-24T16:47:25.264Z,21.30
2022-09-24T16:52:38.679Z,18.63
2022-09-24T16:57:53.151Z,21.17
2022-09-24T17:03:06.906Z,20.77
2022-09-24T17:08:24.335Z,16.80
2022-09-24T17:10:54.761Z,17.30
2022-09-24T17:13:23.716Z,14.40
2022-09-24T17:15:50.498Z,14.27
2022-09-24T17:18:17.348Z,15.23
2022-09-24T17:20:44.078Z,14.73
2022-09-24T17:23:10.803Z,13.00
2022-09-24T17:25:37.545Z,12.88
2022-09-24T17:28:04.283Z,13.40
2022-09-24T17:30:30.984Z,13.10
2022-09-24T17:32:57.739Z,14.40
2022-09-24T17:33:46.047Z,0
2022-09-24T17:35:24.436Z,14.32
2022-09-24T17:37:51.173Z,16.10
2022-09-24T17:40:23.135Z,14.68
2022-09-24T17:42:51.009Z,16.63
2022-09-24T17:45:17.750Z,13.93
2022-09-24T17:47:44.486Z,17.03
2022-09-24T17:50:11.253Z,15.45
2022-09-24T17:52:37.950Z,15.90
2022-09-24T17:55:05.140Z,17.08
2022-09-24T17:57:31.868Z,16.20
2022-09-24T17:59:58.564Z,17.03
2022-09-24T18:02:25.361Z,17.27
2022-09-24T18:04:52.132Z,16.73
2022-09-24T18:07:18.939Z,18.67
2022-09-24T18:09:45.687Z,16.70
2022-09-24T18:12:17.092Z,22.63
2022-09-24T18:14:44.120Z,18.92
2022-09-24T18:17:10.824Z,22.02
2022-09-24T18:19:37.551Z,20.02
2022-09-24T18:22:04.260Z,19.92
2022-09-24T18:24:30.982Z,20.07
2022-09-24T18:26:57.700Z,24.73
2022-09-24T18:29:24.418Z,22.80
2022-09-24T18:31:51.118Z,20.80
2022-09-24T18:34:18.257Z,18.77
2022-09-24T18:36:45.581Z,19.90
2022-09-24T18:39:15.873Z,21.50
2022-09-24T18:41:44.501Z,21.00
2022-09-24T18:44:11.576Z,20.83
2022-09-24T18:46:38.392Z,20.85
2022-09-24T18:49:05.204Z,21.70
2022-09-24T18:54:20.834Z,22.70
2022-09-24T18:56:47.619Z,23.40
2022-09-24T18:59:17.536Z,20.53
2022-09-24T19:01:45.822Z,20.93
2022-09-24T19:07:00.745Z,21.10
2022-09-24T19:12:14.126Z,23.20
2022-09-24T19:14:40.865Z,20.83
2022-09-24T19:17:07.606Z,22.50
2022-09-24T19:19:34.342Z,22.87
2022-09-24T19:22:01.058Z,23.48
2022-09-24T19:24:27.840Z,22.77
2022-09-24T19:26:54.572Z,23.73
2022-09-24T19:29:21.291Z,23.40
2022-09-24T19:31:48.052Z,22.40
2022-09-24T19:34:14.783Z,25.90
2022-09-24T19:36:44.224Z,23.08
2022-09-24T19:39:16.097Z,25.85
2022-09-24T19:41:43.794Z,23.88
2022-09-24T19:44:10.912Z,25.85
2022-09-24T19:46:37.979Z,24.65
2022-09-24T19:49:04.764Z,25.20
2022-09-24T19:51:33.584Z,27.70
2022-09-24T19:54:02.871Z,27.65
2022-09-24T19:56:30.236Z,27.80
2022-09-24T20:01:45.370Z,24.10
2022-09-24T20:04:12.290Z,27.95
2022-09-24T20:06:39.137Z,25.45
2022-09-24T20:09:06.890Z,26.33
2022-09-24T20:11:33.961Z,26.30
2022-09-24T20:14:01.432Z,25.45
2022-09-24T20:16:29.538Z,26.23
2022-09-24T20:18:57.110Z,27.30
2022-09-24T20:21:25.921Z,24.85
2022-09-24T20:23:54.164Z,25.38
2022-09-24T20:26:20.918Z,28.77
2022-09-24T20:28:47.723Z,27.23
2022-09-24T20:31:16.630Z,26.77
2022-09-24T20:33:43.402Z,26.67
2022-09-24T20:36:15.818Z,25.52
2022-09-24T20:38:47.364Z,26.85
2022-09-24T20:41:25.102Z,24.83
2022-09-24T20:43:54.281Z,25.60
2022-09-24T20:46:23.698Z,27.30
2022-09-24T20:48:51.844Z,26.95
2022-09-24T20:51:21.164Z,26.13
2022-09-24T20:53:49.161Z,27.98
2022-09-24T20:56:17.516Z,25.65
2022-09-24T20:58:45.008Z,28.52
2022-09-24T21:03:48.404Z,0
2022-09-24T21:03:58.597Z,31.70
2022-09-24T21:06:25.564Z,29.23
2022-09-24T21:08:53.008Z,32.67
2022-09-24T21:11:22.249Z,29.55
2022-09-24T21:13:52.155Z,29.50
2022-09-24T21:16:22.185Z,27.70
2022-09-24T21:18:43.013Z,0
2022-09-24T21:21:37.323Z,27.45
2022-09-24T21:26:51.590Z,29.13
2022-09-24T21:32:05.922Z,23.63
2022-09-24T21:36:47.082Z,0
2022-09-24T21:37:19.306Z,25.67
2022-09-24T21:39:46.013Z,25.17
2022-09-24T21:42:12.867Z,27.20
2022-09-24T21:44:39.766Z,27.48
2022-09-24T21:47:06.545Z,22.80
2022-09-24T21:49:33.277Z,25.23
2022-09-24T21:51:59.999Z,25.58
2022-09-24T21:54:26.744Z,23.98
2022-09-24T21:59:40.164Z,27.13
2022-09-24T22:02:06.969Z,25.17
2022-09-24T22:04:33.802Z,24.77
2022-09-24T22:07:01.012Z,23.50
2022-09-24T22:09:28.488Z,24.50
2022-09-24T22:11:55.490Z,25.25
2022-09-24T22:14:23.009Z,24.70
2022-09-24T22:16:49.785Z,25.88
2022-09-24T22:19:16.704Z,27.70
2022-09-24T22:21:43.484Z,26.90
2022-09-24T22:24:10.829Z,27.23
2022-09-24T22:26:37.830Z,27.60
2022-09-24T22:29:04.770Z,26.10
2022-09-24T22:31:32.660Z,27.88
2022-09-24T22:33:59.408Z,28.70
2022-09-24T22:36:28.215Z,29.50
2022-09-24T22:38:55.834Z,31.27
2022-09-24T22:41:23.295Z,31.33
2022-09-24T22:43:50.550Z,29.15
2022-09-24T22:46:17.775Z,28.52
2022-09-24T22:47:38.840Z,0
2022-09-24T22:51:31.846Z,29.38
2022-09-24T22:56:45.265Z,27.20
2022-09-24T22:59:12.380Z,27.25
2022-09-24T23:01:42.463Z,30.50
2022-09-24T23:04:10.842Z,26.50
2022-09-24T23:09:24.230Z,25.02
2022-09-24T23:11:50.953Z,24.13
2022-09-24T23:14:17.745Z,23.52
2022-09-24T23:16:45.116Z,22.67
2022-09-24T23:22:04.265Z,26.77
2022-09-24T23:24:31.006Z,22.23
2022-09-24T23:26:40.350Z,0
2022-09-24T23:26:57.725Z,20.65
2022-09-24T23:29:24.441Z,21.60
2022-09-24T23:31:51.631Z,21.42
2022-09-24T23:34:18.341Z,22.50
2022-09-24T23:36:45.118Z,20.88
2022-09-24T23:39:11.947Z,20.10
2022-09-24T23:41:38.660Z,21.67
2022-09-24T23:44:05.983Z,18.58
2022-09-24T23:46:33.430Z,21.08
2022-09-24T23:49:00.256Z,19.40
2022-09-24T23:51:27.023Z,18.92
2022-09-24T23:53:54.698Z,21.13
2022-09-24T23:56:21.514Z,19.45
2022-09-24T23:58:48.390Z,21.58
